Time;durP1;ratioP1;P1;durP2;ratioP2;P2;SDS_P1;SDS_P2;PMS_P1;PMS_P2;Temp;Humidity;BMP_temperature;BMP_pressure;BME280_temperature;BME280_humidity;BME280_pressure;Samples;Min_cycle;Max_cycle;Signal;HPM_P1;HPM_P2
2021/04/14 00:00:51;;;;;;;4.43;2.90;;;6.80;57.10;;;;;;5066535;28;20207;-89
2021/04/14 00:03:21;;;;;;;4.97;3.33;;;6.80;56.90;;;;;;5066522;28;20208;-89
2021/04/14 00:05:47;;;;;;;4.60;2.90;;;6.70;57.00;;;;;;5057092;28;20182;-88
2021/04/14 00:08:15;;;;;;;3.57;3.27;;;6.70;57.30;;;;;;5067665;28;20180;-88
2021/04/14 00:10:42;;;;;;;3.30;2.97;;;6.70;57.50;;;;;;5067249;28;20173;-89
2021/04/14 00:13:11;;;;;;;3.00;2.70;;;6.70;57.20;;;;;;5066477;28;20204;-89
2021/04/14 00:15:42;;;;;;;4.47;2.97;;;6.70;57.50;;;;;;5067412;28;20214;-88
2021/04/14 00:18:08;;;;;;;4.97;3.37;;;6.70;57.40;;;;;;5049177;28;20620;-90
2021/04/14 00:20:34;;;;;;;4.30;3.00;;;6.60;57.30;;;;;;5049062;28;20862;-88
2021/04/14 00:23:00;;;;;;;4.50;2.70;;;6.50;58.00;;;;;;5066352;28;20290;-88
2021/04/14 00:25:30;;;;;;;5.73;3.10;;;6.60;57.90;;;;;;5066908;28;20200;-89
2021/04/14 00:27:56;;;;;;;3.33;3.00;;;6.60;57.70;;;;;;5066253;28;20183;-88
2021/04/14 00:30:22;;;;;;;4.07;2.77;;;6.60;57.50;;;;;;5066547;28;20183;-88
2021/04/14 00:32:49;;;;;;;3.73;3.07;;;6.50;57.80;;;;;;5066422;28;20219;-88
2021/04/14 00:35:16;;;;;;;3.97;3.07;;;6.40;57.70;;;;;;5066811;28;20175;-87
2021/04/14 00:37:42;;;;;;;5.03;2.97;;;6.40;57.70;;;;;;5066352;28;20187;-89
2021/04/14 00:40:20;;;;;;;4.00;3.07;;;6.50;58.00;;;;;;5048588;28;20180;-88
2021/04/14 00:42:46;;;;;;;3.47;3.17;;;6.40;58.70;;;;;;5066484;28;20678;-88
2021/04/14 00:45:13;;;;;;;3.40;3.00;;;6.40;58.10;;;;;;5065676;28;20176;-88
2021/04/14 00:47:38;;;;;;;5.90;3.63;;;6.40;58.00;;;;;;5047501;28;20181;-88
2021/04/14 00:50:15;;;;;;;4.90;3.57;;;6.30;58.20;;;;;;5039254;28;20234;-89
2021/04/14 00:52:41;;;;;;;3.27;2.80;;;6.30;58.30;;;;;;5049502;28;20270;-89
2021/04/14 00:55:11;;;;;;;3.50;3.20;;;6.30;58.20;;;;;;5066009;28;20193;-89
2021/04/14 00:57:37;;;;;;;4.03;3.10;;;6.20;58.60;;;;;;5066055;28;20168;-88
2021/04/14 01:00:07;;;;;;;3.80;3.33;;;6.20;59.60;;;;;;5048108;28;20184;-89
2021/04/14 01:02:33;;;;;;;3.27;2.97;;;6.10;59.00;;;;;;5065713;28;20636;-88
2021/04/14 01:04:59;;;;;;;3.20;2.90;;;6.10;59.20;;;;;;5048192;28;20250;-89
2021/04/14 01:07:25;;;;;;;4.97;3.40;;;6.00;59.10;;;;;;5065442;28;20176;-89
2021/04/14 01:09:50;;;;;;;4.63;3.07;;;6.00;59.30;;;;;;5065719;28;20777;-87
2021/04/14 01:12:16;;;;;;;5.17;3.03;;;6.00;59.30;;;;;;5065533;28;20671;-87
2021/04/14 01:14:42;;;;;;;3.80;3.27;;;6.00;59.20;;;;;;5064802;28;20192;-87
2021/04/14 01:17:07;;;;;;;3.70;3.23;;;6.00;59.00;;;;;;5064997;28;20203;-87
2021/04/14 01:19:33;;;;;;;4.20;3.23;;;5.90;59.10;;;;;;5047259;28;20252;-87
2021/04/14 01:21:59;;;;;;;3.97;3.23;;;5.80;59.00;;;;;;5064602;28;20265;-87
2021/04/14 01:24:24;;;;;;;6.93;3.23;;;5.70;59.50;;;;;;5047244;28;20208;-88
2021/04/14 01:26:51;;;;;;;4.93;3.07;;;5.70;59.60;;;;;;5047033;28;20172;-87
2021/04/14 01:29:17;;;;;;;5.10;3.23;;;5.60;60.10;;;;;;5065087;28;20246;-87
2021/04/14 01:31:43;;;;;;;5.70;3.27;;;5.60;60.30;;;;;;5046619;28;20200;-87
2021/04/14 01:34:15;;;;;;;4.03;2.90;;;5.60;60.40;;;;;;5063699;28;20306;-87
2021/04/14 01:36:41;;;;;;;2.80;2.60;;;5.60;60.20;;;;;;5064769;28;20180;-87
2021/04/14 01:39:09;;;;;;;3.90;2.60;;;5.70;60.30;;;;;;5064275;28;20192;-86
2021/04/14 01:41:35;;;;;;;5.27;3.07;;;5.60;60.10;;;;;;5064045;28;20203;-87
2021/04/14 01:44:04;;;;;;;4.53;3.00;;;5.60;60.20;;;;;;5064753;28;20231;-87
2021/04/14 01:46:30;;;;;;;2.87;2.57;;;5.70;60.10;;;;;;5066894;28;20168;-87
2021/04/14 01:48:56;;;;;;;3.30;2.90;;;5.60;60.00;;;;;;5065433;28;20168;-87
2021/04/14 01:51:22;;;;;;;4.07;2.97;;;5.70;60.10;;;;;;5061427;28;20204;-87
2021/04/14 01:53:49;;;;;;;3.23;2.70;;;5.60;60.10;;;;;;5044682;28;20177;-87
2021/04/14 01:56:15;;;;;;;3.80;2.80;;;5.60;60.50;;;;;;5044286;28;20245;-87
2021/04/14 01:58:42;;;;;;;4.90;3.13;;;5.60;60.20;;;;;;5045597;28;20188;-86
2021/04/14 02:01:08;;;;;;;3.57;3.27;;;5.60;60.40;;;;;;5051438;28;20203;-87
2021/04/14 02:03:38;;;;;;;2.97;2.67;;;5.60;60.30;;;;;;5047539;28;20228;-87
2021/04/14 02:06:05;;;;;;;4.03;2.93;;;5.60;60.20;;;;;;5065869;28;20173;-87
2021/04/14 02:08:31;;;;;;;3.37;3.03;;;5.50;61.50;;;;;;5065414;28;20219;-87
2021/04/14 02:10:57;;;;;;;4.50;3.00;;;5.50;60.70;;;;;;5046971;28;20189;-87
2021/04/14 02:13:31;;;;;;;3.80;2.97;;;5.50;60.70;;;;;;5048293;28;20172;-86
2021/04/14 02:15:58;;;;;;;4.43;2.70;;;5.50;60.20;;;;;;5065542;28;20277;-86
2021/04/14 02:18:24;;;;;;;4.40;3.20;;;5.50;60.60;;;;;;5065900;28;20203;-87
2021/04/14 02:20:51;;;;;;;3.27;2.90;;;5.40;60.90;;;;;;5065305;28;20188;-87
2021/04/14 02:23:26;;;;;;;3.20;2.90;;;5.50;60.60;;;;;;5065455;28;20204;-87
2021/04/14 02:25:58;;;;;;;3.67;2.97;;;5.40;60.70;;;;;;5065222;28;20194;-87
2021/04/14 02:28:24;;;;;;;3.97;3.10;;;5.40;61.00;;;;;;5065486;28;20172;-87
2021/04/14 02:30:50;;;;;;;5.63;3.00;;;5.30;61.10;;;;;;5065096;28;20473;-87
2021/04/14 02:33:16;;;;;;;2.80;2.60;;;5.30;60.80;;;;;;5065413;28;20176;-87
2021/04/14 02:35:42;;;;;;;3.00;2.70;;;5.20;61.00;;;;;;5047537;28;20247;-87
2021/04/14 02:38:10;;;;;;;4.63;3.03;;;5.10;61.50;;;;;;5065426;28;20203;-88
2021/04/14 02:40:37;;;;;;;4.33;3.10;;;5.10;61.50;;;;;;5065652;28;20184;-87
2021/04/14 02:43:03;;;;;;;4.13;3.20;;;5.20;61.60;;;;;;5065275;28;20215;-87
2021/04/14 02:45:31;;;;;;;5.33;3.53;;;5.10;61.50;;;;;;5046833;28;20203;-87
2021/04/14 02:47:57;;;;;;;3.47;3.17;;;4.70;62.40;;;;;;5056082;28;20270;-88
2021/04/14 02:50:23;;;;;;;3.03;2.77;;;4.60;63.30;;;;;;5057100;28;20183;-88
2021/04/14 02:52:48;;;;;;;3.57;3.20;;;4.60;63.60;;;;;;5030753;28;20215;-87
2021/04/14 02:55:15;;;;;;;4.57;2.97;;;4.80;62.90;;;;;;5071674;28;20184;-87
2021/04/14 02:57:41;;;;;;;4.40;2.80;;;4.80;62.90;;;;;;5077680;28;20161;-87
2021/04/14 03:00:09;;;;;;;3.17;2.87;;;4.80;62.60;;;;;;5073982;28;20219;-88
2021/04/14 03:02:35;;;;;;;5.23;3.13;;;4.80;62.60;;;;;;5065081;28;20722;-87
2021/04/14 03:05:01;;;;;;;4.47;3.47;;;4.80;62.30;;;;;;5064843;28;20211;-87
2021/04/14 03:07:27;;;;;;;5.47;3.00;;;4.70;63.40;;;;;;5065353;28;20637;-87
2021/04/14 03:09:52;;;;;;;4.30;3.10;;;4.70;63.00;;;;;;5064910;28;20176;-87
2021/04/14 03:12:18;;;;;;;4.40;3.00;;;4.80;62.80;;;;;;5064611;28;20282;-86
2021/04/14 03:14:45;;;;;;;3.57;2.90;;;4.80;63.40;;;;;;5065460;28;20188;-87
2021/04/14 03:17:11;;;;;;;2.80;2.50;;;4.90;62.20;;;;;;5065120;28;20319;-87
2021/04/14 03:19:36;;;;;;;4.00;3.60;;;4.90;62.20;;;;;;5046791;28;20184;-87
2021/04/14 03:22:03;;;;;;;4.20;3.23;;;4.90;62.30;;;;;;5046489;28;20239;-87
2021/04/14 03:24:29;;;;;;;4.53;3.10;;;4.90;62.30;;;;;;5065305;28;20228;-87
2021/04/14 03:26:55;;;;;;;4.13;3.13;;;4.80;62.40;;;;;;5064630;28;20582;-86
2021/04/14 03:29:20;;;;;;;4.77;2.93;;;4.70;62.60;;;;;;5047341;28;20191;-87
2021/04/14 03:31:46;;;;;;;3.97;2.90;;;4.70;62.60;;;;;;5046738;28;20200;-87
2021/04/14 03:34:12;;;;;;;3.27;2.97;;;4.70;62.90;;;;;;5046882;28;20263;-87
2021/04/14 03:36:38;;;;;;;4.33;3.10;;;4.60;63.20;;;;;;5046773;28;20188;-86
2021/04/14 03:39:07;;;;;;;3.43;3.00;;;4.60;63.60;;;;;;5046263;28;20228;-86
2021/04/14 03:41:34;;;;;;;3.50;2.90;;;4.60;62.90;;;;;;5064084;28;20211;-87
2021/04/14 03:43:59;;;;;;;3.13;2.87;;;4.70;63.00;;;;;;5046795;28;20231;-87
2021/04/14 03:46:26;;;;;;;5.43;3.43;;;4.70;62.80;;;;;;5064220;28;20184;-87
2021/04/14 03:48:52;;;;;;;4.20;3.80;;;4.60;62.60;;;;;;5064667;28;20204;-87
2021/04/14 03:51:19;;;;;;;4.50;3.77;;;4.50;63.50;;;;;;5046880;28;20208;-87
2021/04/14 03:53:45;;;;;;;6.73;3.50;;;4.40;63.70;;;;;;5064344;28;20661;-87
2021/04/14 03:56:19;;;;;;;4.70;4.07;;;4.10;65.30;;;;;;5056413;28;20192;-87
2021/04/14 03:58:54;;;;;;;5.77;4.40;;;3.90;66.30;;;;;;5046430;28;20662;-88
2021/04/14 04:01:31;;;;;;;4.20;3.80;;;4.00;66.30;;;;;;5047704;28;20737;-87
2021/04/14 04:03:58;;;;;;;6.77;3.53;;;4.00;66.20;;;;;;5054924;28;20223;-88
2021/04/14 04:06:24;;;;;;;4.00;3.40;;;4.10;66.00;;;;;;5067231;28;20176;-87
2021/04/14 04:08:50;;;;;;;4.03;3.63;;;4.20;65.80;;;;;;5050395;28;20268;-87
2021/04/14 04:11:18;;;;;;;4.17;3.57;;;4.30;65.90;;;;;;5067507;28;20192;-88
2021/04/14 04:13:44;;;;;;;4.93;3.70;;;4.20;65.30;;;;;;5050384;28;20191;-88
2021/04/14 04:16:10;;;;;;;4.40;4.00;;;4.10;66.20;;;;;;5067730;28;20177;-87
2021/04/14 04:18:36;;;;;;;6.80;4.20;;;4.00;66.60;;;;;;5050337;28;20177;-87
2021/04/14 04:21:03;;;;;;;3.93;3.43;;;4.10;66.20;;;;;;5033967;28;20188;-87
2021/04/14 04:23:29;;;;;;;4.20;3.87;;;4.20;66.10;;;;;;5067810;28;20200;-87
2021/04/14 04:25:54;;;;;;;4.90;3.60;;;4.20;66.00;;;;;;5050785;28;20183;-87
2021/04/14 04:28:20;;;;;;;5.27;3.57;;;4.30;65.90;;;;;;5051185;28;20192;-87
2021/04/14 04:30:46;;;;;;;3.90;3.47;;;4.30;65.60;;;;;;5069017;28;20244;-87
2021/04/14 04:33:12;;;;;;;5.67;3.97;;;4.40;65.00;;;;;;5067481;28;20199;-84
2021/04/14 04:35:38;;;;;;;5.60;3.87;;;4.40;65.10;;;;;;5049959;28;20188;-85
2021/04/14 04:38:04;;;;;;;3.77;3.40;;;4.40;65.20;;;;;;5051238;28;20200;-86
2021/04/14 04:40:31;;;;;;;4.70;4.30;;;4.40;65.40;;;;;;5068761;28;20176;-84
2021/04/14 04:42:57;;;;;;;4.87;3.47;;;4.60;64.70;;;;;;5050449;28;20223;-85
2021/04/14 04:45:26;;;;;;;4.27;3.87;;;4.60;64.60;;;;;;5048070;28;20172;-84
2021/04/14 04:47:52;;;;;;;5.57;3.87;;;4.60;64.40;;;;;;5067223;28;20173;-84
2021/04/14 04:50:19;;;;;;;4.47;4.03;;;4.60;64.60;;;;;;5049137;28;20234;-85
2021/04/14 04:52:45;;;;;;;5.10;3.70;;;4.70;64.60;;;;;;5065502;28;20196;-85
2021/04/14 04:55:12;;;;;;;4.30;3.63;;;4.70;64.80;;;;;;5029639;28;20252;-85
2021/04/14 04:57:38;;;;;;;5.93;3.60;;;4.70;64.80;;;;;;5046596;28;20236;-88
2021/04/14 05:00:05;;;;;;;5.90;4.23;;;4.70;64.50;;;;;;5048385;28;20199;-84
2021/04/14 05:02:31;;;;;;;6.27;4.13;;;4.50;65.00;;;;;;5066245;28;20227;-84
2021/04/14 05:04:57;;;;;;;10.50;5.00;;;4.60;65.40;;;;;;5065839;28;20204;-84
2021/04/14 05:07:22;;;;;;;5.63;3.93;;;4.70;65.50;;;;;;5049075;28;20181;-84
2021/04/14 05:09:48;;;;;;;6.27;4.37;;;4.80;65.10;;;;;;5048726;28;20176;-84
2021/04/14 05:12:14;;;;;;;6.00;5.50;;;4.90;64.80;;;;;;5048618;28;20229;-85
2021/04/14 05:14:39;;;;;;;7.03;5.17;;;5.00;65.00;;;;;;5066430;28;20206;-84
2021/04/14 05:17:05;;;;;;;7.60;4.60;;;5.00;64.50;;;;;;5064884;28;20180;-84
2021/04/14 05:19:31;;;;;;;5.17;4.50;;;4.90;64.70;;;;;;5063577;28;20199;-84
2021/04/14 05:21:57;;;;;;;5.40;4.73;;;4.80;65.30;;;;;;5069101;28;20192;-84
2021/04/14 05:24:23;;;;;;;5.50;4.90;;;4.80;65.50;;;;;;5067244;28;20238;-85
2021/04/14 05:26:49;;;;;;;6.63;4.33;;;4.60;65.70;;;;;;5047986;28;20184;-86
2021/04/14 05:29:15;;;;;;;5.83;4.70;;;4.50;66.80;;;;;;5056344;28;20185;-86
2021/04/14 05:31:41;;;;;;;6.03;4.10;;;4.20;68.40;;;;;;5042914;28;20250;-85
2021/04/14 05:34:08;;;;;;;5.80;4.83;;;4.20;68.40;;;;;;5063056;28;20188;-84
2021/04/14 05:36:35;;;;;;;5.00;4.50;;;4.30;68.10;;;;;;5060851;28;20238;-85
2021/04/14 05:39:03;;;;;;;6.87;4.30;;;4.50;67.70;;;;;;5049868;28;20188;-86
2021/04/14 05:41:31;;;;;;;5.63;4.23;;;4.60;66.90;;;;;;5051362;28;20305;-83
2021/04/14 05:43:56;;;;;;;4.83;4.03;;;4.70;66.70;;;;;;5055335;28;20211;-86
2021/04/14 05:46:22;;;;;;;6.47;4.13;;;4.80;66.90;;;;;;5050620;28;20172;-84
2021/04/14 05:48:49;;;;;;;7.00;4.67;;;4.90;66.60;;;;;;5064414;28;20647;-86
2021/04/14 05:51:31;;;;;;;6.53;4.10;;;4.80;66.60;;;;;;5027341;28;20264;-86
2021/04/14 05:54:02;;;;;;;5.73;4.73;;;4.60;67.50;;;;;;5031632;28;20220;-86
2021/04/14 05:56:29;;;;;;;6.80;4.50;;;4.70;67.70;;;;;;5059483;28;20212;-85
2021/04/14 05:58:56;;;;;;;6.20;4.97;;;4.80;67.60;;;;;;5041067;28;20204;-86
2021/04/14 06:01:24;;;;;;;5.67;5.07;;;4.80;67.50;;;;;;5062444;28;20206;-89
2021/04/14 06:03:50;;;;;;;5.73;5.03;;;4.90;67.20;;;;;;5055361;28;20224;-85
2021/04/14 06:06:17;;;;;;;8.87;6.07;;;5.00;67.10;;;;;;5059983;28;20228;-86
2021/04/14 06:08:42;;;;;;;9.83;6.53;;;5.00;66.50;;;;;;5039315;28;20193;-87
2021/04/14 06:11:09;;;;;;;6.83;6.13;;;5.00;67.00;;;;;;5053760;28;20296;-88
2021/04/14 06:13:34;;;;;;;10.23;7.77;;;5.00;67.00;;;;;;5055303;28;20185;-88
2021/04/14 06:16:01;;;;;;;8.53;7.33;;;5.00;66.90;;;;;;5057392;28;20192;-87
2021/04/14 06:18:27;;;;;;;10.50;8.27;;;5.00;67.00;;;;;;5062138;28;20180;-87
2021/04/14 06:20:52;;;;;;;8.60;7.73;;;5.00;67.70;;;;;;5064897;28;20212;-88
2021/04/14 06:23:20;;;;;;;10.47;8.07;;;4.80;68.40;;;;;;5068459;28;20199;-90
2021/04/14 06:26:16;;;;;;;9.00;8.13;;;4.70;69.10;;;;;;5068258;28;20192;-89
2021/04/14 06:28:42;;;;;;;10.03;8.97;;;4.70;69.30;;;;;;5057993;28;20241;-88
2021/04/14 06:31:13;;;;;;;10.37;8.37;;;4.60;69.30;;;;;;5053436;28;20204;-87
2021/04/14 06:33:43;;;;;;;11.60;9.13;;;4.60;69.90;;;;;;5058835;28;20260;-88
2021/04/14 06:36:09;;;;;;;10.87;8.37;;;4.60;69.70;;;;;;5046572;28;20749;-88
2021/04/14 06:38:40;;;;;;;9.93;8.87;;;4.60;70.50;;;;;;5053593;28;20203;-88
2021/04/14 06:44:12;;;;;;;11.43;9.37;;;4.60;70.20;;;;;;5054577;28;20223;-88
2021/04/14 06:46:40;;;;;;;10.50;9.13;;;4.60;70.50;;;;;;5040111;28;20184;-88
2021/04/14 06:49:18;;;;;;;10.67;8.53;;;4.50;70.80;;;;;;5035207;28;20188;-88
2021/04/14 06:51:58;;;;;;;9.97;8.90;;;4.50;70.40;;;;;;5046147;28;20203;-88
2021/04/14 06:54:45;;;;;;;10.90;9.43;;;4.50;70.40;;;;;;5034438;28;20188;-88
2021/04/14 06:57:23;;;;;;;12.37;9.57;;;4.60;70.20;;;;;;5042285;28;20195;-88
2021/04/14 06:59:57;;;;;;;10.57;8.23;;;4.70;69.10;;;;;;5058131;28;20171;-88
2021/04/14 07:02:30;;;;;;;10.00;8.43;;;4.80;68.50;;;;;;5056898;28;20294;-88
2021/04/14 07:05:04;;;;;;;9.33;7.60;;;4.80;68.60;;;;;;5046233;28;20235;-88
2021/04/14 07:07:33;;;;;;;9.87;7.47;;;4.90;67.90;;;;;;5049683;28;20258;-88
2021/04/14 07:10:24;;;;;;;12.23;7.47;;;5.00;68.30;;;;;;5051635;28;20306;-88
2021/04/14 07:12:53;;;;;;;9.83;7.00;;;5.10;66.60;;;;;;5054994;28;20205;-88
2021/04/14 07:15:21;;;;;;;12.90;7.27;;;5.20;66.30;;;;;;5062074;28;20183;-88
2021/04/14 07:17:58;;;;;;;8.20;7.40;;;5.30;67.20;;;;;;5058333;28;20180;-87
2021/04/14 07:20:45;;;;;;;9.90;7.77;;;5.40;66.40;;;;;;5052959;28;20183;-88
2021/04/14 07:23:33;;;;;;;7.87;6.63;;;5.60;65.80;;;;;;5056799;28;20275;-88
2021/04/14 07:26:08;;;;;;;9.20;6.93;;;5.70;65.80;;;;;;5050839;28;20212;-87
2021/04/14 07:28:33;;;;;;;7.30;6.23;;;5.80;64.10;;;;;;5056516;28;20177;-89
2021/04/14 07:31:18;;;;;;;6.90;6.20;;;5.90;63.40;;;;;;5060378;28;20193;-88
2021/04/14 07:34:07;;;;;;;7.83;5.53;;;6.10;62.90;;;;;;5056829;28;20193;-89
2021/04/14 07:36:54;;;;;;;9.33;6.63;;;6.30;61.70;;;;;;5057387;28;20191;-88
2021/04/14 07:39:35;;;;;;;7.73;6.93;;;6.50;61.50;;;;;;5054796;28;20204;-88
2021/04/14 07:42:43;;;;;;;9.60;7.33;;;6.40;62.30;;;;;;5056312;28;20208;-88
2021/04/14 07:45:08;;;;;;;8.80;6.83;;;6.40;62.00;;;;;;5058704;28;20604;-88
2021/04/14 07:47:38;;;;;;;7.70;6.20;;;6.30;62.40;;;;;;5051012;28;20241;-88
2021/04/14 07:50:04;;;;;;;7.17;5.97;;;6.20;62.00;;;;;;5052302;28;20183;-88
2021/04/14 07:52:31;;;;;;;7.13;5.63;;;6.10;62.30;;;;;;5061346;28;20227;-89
2021/04/14 07:54:57;;;;;;;6.20;5.40;;;6.30;60.70;;;;;;5054802;28;20180;-89
2021/04/14 07:57:28;;;;;;;6.57;5.20;;;6.30;60.20;;;;;;5052530;28;20216;-87
2021/04/14 07:59:54;;;;;;;6.00;5.40;;;6.30;60.00;;;;;;5042870;28;20193;-89
2021/04/14 08:02:30;;;;;;;8.50;5.53;;;6.40;60.10;;;;;;5033037;28;20232;-89
2021/04/14 08:05:17;;;;;;;7.50;5.17;;;6.50;59.50;;;;;;5056741;28;20290;-89
2021/04/14 08:07:50;;;;;;;9.30;5.90;;;6.70;58.60;;;;;;5062385;28;20180;-89
2021/04/14 08:10:26;;;;;;;6.80;5.33;;;6.90;58.10;;;;;;5061681;28;20184;-89
2021/04/14 08:13:05;;;;;;;8.33;4.43;;;7.10;58.20;;;;;;5055401;28;20645;-89
2021/04/14 08:15:45;;;;;;;8.47;4.43;;;7.20;56.50;;;;;;5055941;28;20194;-89
2021/04/14 08:18:17;;;;;;;6.80;4.83;;;7.20;56.00;;;;;;5035095;28;20198;-89
2021/04/14 08:20:50;;;;;;;5.07;4.40;;;7.20;56.40;;;;;;5057936;28;20180;-89
2021/04/14 08:23:22;;;;;;;6.43;3.97;;;7.40;56.10;;;;;;5040281;28;20208;-88
2021/04/14 08:25:52;;;;;;;6.70;4.53;;;7.50;54.40;;;;;;5037951;28;20280;-90
2021/04/14 08:28:41;;;;;;;7.17;3.90;;;7.70;53.70;;;;;;5060902;28;20183;-90
2021/04/14 08:31:19;;;;;;;7.33;4.30;;;8.10;53.10;;;;;;5039877;28;20269;-89
2021/04/14 08:33:46;;;;;;;5.27;4.17;;;8.30;52.20;;;;;;5041632;28;20223;-89
2021/04/14 08:36:27;;;;;;;7.37;4.20;;;8.30;52.70;;;;;;5031957;28;20189;-89
2021/04/14 08:38:52;;;;;;;5.50;3.57;;;8.40;52.20;;;;;;5059610;28;20212;-90
2021/04/14 08:41:28;;;;;;;5.00;4.30;;;8.50;51.80;;;;;;5060209;28;20250;-89
2021/04/14 08:44:04;;;;;;;6.17;3.60;;;8.80;51.60;;;;;;5058042;28;20200;-89
2021/04/14 08:46:36;;;;;;;4.20;3.57;;;8.80;50.40;;;;;;5056559;28;21131;-89
2021/04/14 08:49:06;;;;;;;5.10;3.03;;;9.00;50.70;;;;;;5063645;28;20199;-89
2021/04/14 08:51:38;;;;;;;3.47;2.60;;;9.00;49.40;;;;;;5058943;28;20299;-89
2021/04/14 08:54:04;;;;;;;2.70;2.40;;;9.00;48.10;;;;;;5058884;28;20185;-89
2021/04/14 08:56:30;;;;;;;5.30;2.80;;;8.90;47.60;;;;;;5048082;28;20204;-89
2021/04/14 08:58:56;;;;;;;5.50;2.90;;;8.90;47.60;;;;;;5050785;28;20468;-88
2021/04/14 09:01:23;;;;;;;3.93;2.47;;;9.00;48.30;;;;;;5053878;28;20224;-89
2021/04/14 09:03:49;;;;;;;4.80;2.43;;;9.00;48.00;;;;;;5056208;28;20223;-89
2021/04/14 09:06:18;;;;;;;5.27;2.93;;;9.00;50.00;;;;;;5059421;28;20187;-89
2021/04/14 09:08:48;;;;;;;4.67;3.80;;;8.90;50.40;;;;;;5053383;28;20245;-88
2021/04/14 09:11:23;;;;;;;7.43;3.50;;;8.70;51.00;;;;;;5051999;28;20238;-87
2021/04/14 09:14:00;;;;;;;5.07;4.30;;;8.60;50.70;;;;;;5040532;28;20241;-88
2021/04/14 09:16:33;;;;;;;4.30;3.20;;;8.50;51.00;;;;;;5033566;28;20198;-87
2021/04/14 09:19:26;;;;;;;6.03;3.60;;;8.40;50.50;;;;;;5065583;28;20200;-88
2021/04/14 09:22:05;;;;;;;4.90;2.93;;;8.30;50.30;;;;;;5055934;28;20212;-88
2021/04/14 09:24:39;;;;;;;5.77;4.03;;;8.30;50.20;;;;;;5055581;28;20216;-86
2021/04/14 09:27:18;;;;;;;7.20;4.33;;;8.30;52.00;;;;;;5049673;28;20272;-85
2021/04/14 09:29:44;;;;;;;5.90;4.70;;;8.70;51.40;;;;;;5066622;28;20623;-88
2021/04/14 09:32:12;;;;;;;7.27;4.53;;;8.60;51.40;;;;;;5046032;28;20232;-87
2021/04/14 09:34:49;;;;;;;6.30;5.40;;;8.80;51.40;;;;;;5046414;28;20209;-87
2021/04/14 09:37:17;;;;;;;5.40;4.90;;;9.00;51.40;;;;;;5032760;28;20584;-86
2021/04/14 09:39:43;;;;;;;6.53;4.67;;;9.10;51.00;;;;;;5064861;28;20207;-87
2021/04/14 09:42:15;;;;;;;5.07;4.57;;;9.20;50.40;;;;;;5048632;28;20208;-87
2021/04/14 09:44:44;;;;;;;6.70;4.70;;;9.40;49.80;;;;;;5054353;28;20243;-87
2021/04/14 09:47:25;;;;;;;6.73;4.13;;;9.70;49.50;;;;;;5058755;28;20165;-91
2021/04/14 09:49:53;;;;;;;6.83;4.23;;;10.00;49.50;;;;;;5041720;28;20240;-86
2021/04/14 09:52:30;;;;;;;9.30;3.83;;;10.40;46.60;;;;;;5048849;28;20208;-86
2021/04/14 09:55:17;;;;;;;7.50;3.80;;;10.50;44.40;;;;;;5055082;28;20191;-86
2021/04/14 09:57:46;;;;;;;5.23;4.00;;;10.40;44.10;;;;;;5048068;28;20192;-87
2021/04/14 10:00:19;;;;;;;5.47;3.43;;;10.60;44.10;;;;;;5030851;28;20200;-86
2021/04/14 10:02:47;;;;;;;4.57;3.77;;;11.10;44.10;;;;;;5048020;28;20235;-86
2021/04/14 10:05:17;;;;;;;5.90;3.10;;;11.40;41.50;;;;;;5063962;28;20208;-87
2021/04/14 10:07:45;;;;;;;3.97;3.00;;;11.50;39.90;;;;;;5052758;28;20697;-89
2021/04/14 10:10:22;;;;;;;4.87;3.73;;;11.60;39.70;;;;;;5030708;28;20199;-88
2021/04/14 10:12:49;;;;;;;3.80;2.90;;;11.50;39.20;;;;;;5063288;28;20223;-88
2021/04/14 10:15:16;;;;;;;4.40;2.63;;;11.50;38.30;;;;;;5019229;28;20199;-86
2021/04/14 10:17:42;;;;;;;3.53;2.60;;;11.20;38.20;;;;;;5060469;28;20192;-82
2021/04/14 10:20:13;;;;;;;2.67;2.47;;;11.00;37.20;;;;;;5052384;28;20254;-82
2021/04/14 10:22:47;;;;;;;4.77;2.97;;;11.20;37.40;;;;;;5058529;28;20287;-82
2021/04/14 10:25:23;;;;;;;4.07;2.40;;;11.70;37.10;;;;;;5055504;28;20239;-82
2021/04/14 10:28:03;;;;;;;3.63;2.40;;;11.60;35.60;;;;;;5053020;28;20192;-82
2021/04/14 10:30:32;;;;;;;2.97;2.67;;;11.90;34.60;;;;;;5058041;28;20180;-82
2021/04/14 10:33:04;;;;;;;3.30;3.00;;;12.30;34.50;;;;;;5059116;28;20204;-83
2021/04/14 10:35:29;;;;;;;6.53;4.00;;;12.40;35.60;;;;;;5042914;28;20200;-82
2021/04/14 10:37:56;;;;;;;3.73;2.73;;;12.80;34.90;;;;;;5033497;28;20580;-82
2021/04/14 10:40:34;;;;;;;3.73;2.80;;;12.60;34.50;;;;;;5055647;28;20587;-83
2021/04/14 10:43:33;;;;;;;4.33;3.53;;;13.10;35.70;;;;;;5057050;28;20933;-84
2021/04/14 10:46:10;;;;;;;3.20;2.90;;;13.40;35.00;;;;;;5015938;28;20196;-84
2021/04/14 10:48:41;;;;;;;4.10;3.70;;;13.40;33.80;;;;;;5058993;28;20239;-86
2021/04/14 10:51:17;;;;;;;4.47;3.20;;;12.60;33.70;;;;;;5054057;28;20262;-85
2021/04/14 10:53:45;;;;;;;3.10;2.87;;;12.10;35.60;;;;;;5052255;28;20190;-85
2021/04/14 10:56:24;;;;;;;5.87;3.10;;;11.60;36.00;;;;;;5058004;28;20216;-82
2021/04/14 10:58:51;;;;;;;3.37;3.00;;;11.20;35.30;;;;;;5030268;28;20183;-82
2021/04/14 11:01:20;;;;;;;7.43;3.50;;;11.30;36.30;;;;;;5062816;28;20200;-84
2021/04/14 11:04:04;;;;;;;5.60;3.63;;;11.20;36.00;;;;;;5060895;28;20235;-84
2021/04/14 11:06:32;;;;;;;4.93;3.30;;;11.10;36.00;;;;;;5045762;28;20255;-84
2021/04/14 11:08:59;;;;;;;4.90;3.63;;;10.70;37.20;;;;;;5048376;28;20177;-84
2021/04/14 11:11:25;;;;;;;3.93;3.03;;;10.80;36.80;;;;;;5055780;28;20267;-84
2021/04/14 11:13:51;;;;;;;4.43;3.00;;;11.00;36.20;;;;;;5065278;28;20564;-84
2021/04/14 11:16:17;;;;;;;4.17;3.13;;;10.90;36.50;;;;;;5046222;28;20647;-83
2021/04/14 11:18:43;;;;;;;7.30;3.00;;;10.70;36.60;;;;;;5060358;28;20714;-85
2021/04/14 11:21:30;;;;;;;4.00;3.60;;;10.80;36.80;;;;;;5062182;28;20240;-84
2021/04/14 11:24:16;;;;;;;5.80;4.33;;;10.80;36.50;;;;;;5065770;28;20215;-85
2021/04/14 11:26:51;;;;;;;5.00;4.60;;;10.40;41.60;;;;;;5065626;28;20211;-84
2021/04/14 11:29:26;;;;;;;10.20;4.13;;;10.10;44.00;;;;;;5069209;28;20187;-83
2021/04/14 11:31:53;;;;;;;4.23;3.60;;;10.10;45.00;;;;;;5063066;28;20211;-81
2021/04/14 11:34:28;;;;;;;3.50;3.20;;;9.80;45.20;;;;;;5052927;28;20185;-82
2021/04/14 11:37:04;;;;;;;4.17;3.50;;;9.70;48.10;;;;;;5048167;28;20175;-84
2021/04/14 11:40:00;;;;;;;3.30;3.00;;;9.60;47.40;;;;;;5062892;28;20187;-81
2021/04/14 11:42:29;;;;;;;5.17;3.40;;;9.20;48.70;;;;;;5063943;28;20246;-84
2021/04/14 11:45:00;;;;;;;6.37;3.63;;;9.10;49.40;;;;;;5051587;28;20231;-83
2021/04/14 11:47:31;;;;;;;3.90;3.40;;;9.30;49.30;;;;;;5045378;28;20234;-84
2021/04/14 11:50:09;;;;;;;4.60;2.97;;;9.40;46.90;;;;;;5060473;28;20219;-82
2021/04/14 11:52:49;;;;;;;5.40;3.37;;;9.60;47.40;;;;;;5059429;28;20209;-82
2021/04/14 11:55:28;;;;;;;3.40;3.10;;;9.80;43.20;;;;;;5054624;28;20191;-86
2021/04/14 11:58:01;;;;;;;3.10;2.90;;;9.70;42.20;;;;;;5062753;28;20180;-85
2021/04/14 12:00:38;;;;;;;3.07;2.80;;;9.70;42.10;;;;;;5065008;28;20184;-86
2021/04/14 12:03:22;;;;;;;3.30;3.00;;;9.80;43.10;;;;;;5055355;28;20243;-85
2021/04/14 12:05:52;;;;;;;5.40;3.30;;;10.00;44.30;;;;;;5063009;28;20180;-83
2021/04/14 12:08:18;;;;;;;5.67;3.23;;;9.90;46.20;;;;;;5060624;28;20234;-86
2021/04/14 12:10:44;;;;;;;5.43;3.70;;;9.70;46.70;;;;;;5064768;28;20192;-84
2021/04/14 12:13:10;;;;;;;7.27;3.30;;;9.70;46.60;;;;;;5053247;28;20204;-85
2021/04/14 12:15:36;;;;;;;5.13;3.20;;;9.90;45.60;;;;;;5058857;28;20617;-84
2021/04/14 12:18:02;;;;;;;3.23;2.87;;;9.90;44.50;;;;;;5060442;28;20204;-83
2021/04/14 12:20:27;;;;;;;5.50;3.20;;;9.70;44.00;;;;;;5048652;28;20188;-84
2021/04/14 12:22:53;;;;;;;3.77;3.07;;;9.60;41.60;;;;;;5055861;28;20220;-87
2021/04/14 12:25:20;;;;;;;2.80;2.60;;;9.80;40.80;;;;;;5060330;28;20208;-84
2021/04/14 12:27:46;;;;;;;2.47;2.20;;;9.90;38.60;;;;;;5058660;28;20200;-84
2021/04/14 12:30:15;;;;;;;5.50;3.23;;;10.10;38.40;;;;;;5062501;28;20185;-83
2021/04/14 12:32:41;;;;;;;5.30;3.47;;;10.60;37.90;;;;;;5062935;28;20192;-81
2021/04/14 12:35:08;;;;;;;3.80;3.43;;;11.00;37.50;;;;;;5063227;28;20200;-83
2021/04/14 12:37:34;;;;;;;6.80;3.23;;;11.30;36.10;;;;;;5062557;28;20193;-85
2021/04/14 12:40:00;;;;;;;2.97;2.73;;;11.70;35.70;;;;;;5058643;28;20183;-86
2021/04/14 12:42:28;;;;;;;3.23;2.73;;;11.90;32.90;;;;;;5035793;28;20780;-84
2021/04/14 12:44:55;;;;;;;3.60;2.90;;;11.90;32.10;;;;;;5025022;28;20208;-84
2021/04/14 12:47:27;;;;;;;5.97;2.93;;;12.30;30.60;;;;;;5062996;28;20231;-85
2021/04/14 12:49:53;;;;;;;3.20;2.90;;;12.70;30.30;;;;;;5053510;28;20181;-85
2021/04/14 12:52:42;;;;;;;5.50;3.00;;;13.70;30.60;;;;;;5064024;28;20209;-83
2021/04/14 12:55:37;;;;;;;4.83;3.20;;;14.30;28.50;;;;;;5062582;28;20215;-85
2021/04/14 12:58:04;;;;;;;5.80;3.27;;;14.50;27.60;;;;;;5057430;28;20266;-84
2021/04/14 13:00:30;;;;;;;4.83;2.90;;;14.50;28.20;;;;;;5054813;28;20207;-84
2021/04/14 13:03:23;;;;;;;3.37;3.00;;;14.60;28.50;;;;;;5059801;28;20227;-85
2021/04/14 13:05:56;;;;;;;3.37;3.00;;;15.00;28.30;;;;;;5057640;28;20184;-84
2021/04/14 13:08:26;;;;;;;9.67;6.97;;;14.80;28.20;;;;;;5062260;28;20200;-85
2021/04/14 13:11:14;;;;;;;3.00;2.80;;;15.20;27.50;;;;;;5055570;28;20266;-85
2021/04/14 13:13:40;;;;;;;7.70;3.93;;;15.00;27.50;;;;;;5064908;28;20252;-83